sensor_id;sensor_type;location;lat;lon;timestamp;pressure;altitude;pressure_sealevel;temperature;humidity
78671;BME280;68277;52.724;6.516;2023-06-14T00:01:34;101618.97;;;17.31;42.78
78671;BME280;68277;52.724;6.516;2023-06-14T00:04:01;101625.47;;;17.24;42.52
78671;BME280;68277;52.724;6.516;2023-06-14T00:06:28;101648.09;;;17.38;42.81
78671;BME280;68277;52.724;6.516;2023-06-14T00:08:54;101645.75;;;17.29;42.72
78671;BME280;68277;52.724;6.516;2023-06-14T00:11:20;101648.59;;;17.25;42.61
78671;BME280;68277;52.724;6.516;2023-06-14T00:13:46;101623.28;;;17.10;42.69
78671;BME280;68277;52.724;6.516;2023-06-14T00:16:12;101628.63;;;17.10;43.11
78671;BME280;68277;52.724;6.516;2023-06-14T00:18:38;101631.63;;;17.02;43.76
78671;BME280;68277;52.724;6.516;2023-06-14T00:21:04;101630.75;;;17.02;43.52
78671;BME280;68277;52.724;6.516;2023-06-14T00:23:30;101649.34;;;17.05;43.76
78671;BME280;68277;52.724;6.516;2023-06-14T00:25:56;101622.28;;;16.89;43.17
78671;BME280;68277;52.724;6.516;2023-06-14T00:28:21;101639.09;;;16.93;43.58
78671;BME280;68277;52.724;6.516;2023-06-14T00:30:47;101637.44;;;16.89;43.80
78671;BME280;68277;52.724;6.516;2023-06-14T00:33:13;101641.25;;;16.82;43.40
78671;BME280;68277;52.724;6.516;2023-06-14T00:35:38;101629.09;;;16.73;43.39
78671;BME280;68277;52.724;6.516;2023-06-14T00:38:04;101647.75;;;16.75;43.71
78671;BME280;68277;52.724;6.516;2023-06-14T00:40:29;101631.38;;;16.59;44.23
78671;BME280;68277;52.724;6.516;2023-06-14T00:42:55;101656.88;;;16.69;44.14
78671;BME280;68277;52.724;6.516;2023-06-14T00:45:21;101613.16;;;16.44;43.84
78671;BME280;68277;52.724;6.516;2023-06-14T00:47:46;101613.28;;;16.41;44.25
78671;BME280;68277;52.724;6.516;2023-06-14T00:50:13;101654.38;;;16.63;44.63
78671;BME280;68277;52.724;6.516;2023-06-14T00:52:39;101624.97;;;16.37;44.71
78671;BME280;68277;52.724;6.516;2023-06-14T00:55:05;101629.34;;;16.39;44.50
78671;BME280;68277;52.724;6.516;2023-06-14T00:57:31;101623.41;;;16.31;44.90
78671;BME280;68277;52.724;6.516;2023-06-14T00:59:57;101637.34;;;16.39;44.78
78671;BME280;68277;52.724;6.516;2023-06-14T01:02:23;101637.63;;;16.32;45.08
78671;BME280;68277;52.724;6.516;2023-06-14T01:04:49;101663.06;;;16.43;46.24
78671;BME280;68277;52.724;6.516;2023-06-14T01:07:30;101661.47;;;16.38;45.19
78671;BME280;68277;52.724;6.516;2023-06-14T01:15:32;101648.72;;;16.20;45.56
78671;BME280;68277;52.724;6.516;2023-06-14T01:17:59;101639.25;;;16.10;46.01
78671;BME280;68277;52.724;6.516;2023-06-14T01:20:30;101670.94;;;16.20;47.36
78671;BME280;68277;52.724;6.516;2023-06-14T01:22:56;101671.22;;;16.13;46.04
78671;BME280;68277;52.724;6.516;2023-06-14T01:25:22;101647.81;;;15.93;46.35
78671;BME280;68277;52.724;6.516;2023-06-14T01:27:52;101664.34;;;16.04;46.00
78671;BME280;68277;52.724;6.516;2023-06-14T01:30:20;101635.66;;;15.83;46.45
78671;BME280;68277;52.724;6.516;2023-06-14T01:32:47;101632.06;;;15.84;47.01
78671;BME280;68277;52.724;6.516;2023-06-14T01:35:13;101659.31;;;15.95;49.00
78671;BME280;68277;52.724;6.516;2023-06-14T01:37:40;101677.09;;;15.96;46.75
78671;BME280;68277;52.724;6.516;2023-06-14T01:40:07;101679.91;;;15.92;46.99
78671;BME280;68277;52.724;6.516;2023-06-14T01:42:36;101674.72;;;15.86;47.17
78671;BME280;68277;52.724;6.516;2023-06-14T01:45:07;101691.91;;;15.77;48.53
78671;BME280;68277;52.724;6.516;2023-06-14T01:47:33;101683.97;;;15.74;47.87
78671;BME280;68277;52.724;6.516;2023-06-14T01:49:59;101633.34;;;15.42;48.24
78671;BME280;68277;52.724;6.516;2023-06-14T01:52:25;101670.03;;;15.64;47.55
78671;BME280;68277;52.724;6.516;2023-06-14T01:54:51;101647.56;;;15.42;48.32
78671;BME280;68277;52.724;6.516;2023-06-14T01:57:16;101685.28;;;15.61;47.71
78671;BME280;68277;52.724;6.516;2023-06-14T01:59:42;101673.03;;;15.54;49.08
78671;BME280;68277;52.724;6.516;2023-06-14T02:02:08;101669.69;;;15.47;48.30
78671;BME280;68277;52.724;6.516;2023-06-14T02:04:34;101659.22;;;15.38;49.12
78671;BME280;68277;52.724;6.516;2023-06-14T02:06:59;101641.72;;;15.30;49.36
78671;BME280;68277;52.724;6.516;2023-06-14T02:09:25;101645.28;;;15.29;48.31
78671;BME280;68277;52.724;6.516;2023-06-14T02:11:53;101687.53;;;15.44;49.53
78671;BME280;68277;52.724;6.516;2023-06-14T02:14:19;101661.28;;;15.29;49.24
78671;BME280;68277;52.724;6.516;2023-06-14T02:16:45;101680.44;;;15.43;49.11
78671;BME280;68277;52.724;6.516;2023-06-14T02:19:18;101664.91;;;15.26;49.16
78671;BME280;68277;52.724;6.516;2023-06-14T02:21:44;101681.59;;;15.34;49.41
78671;BME280;68277;52.724;6.516;2023-06-14T02:24:12;101650.19;;;15.13;49.65
78671;BME280;68277;52.724;6.516;2023-06-14T02:26:37;101672.09;;;15.24;49.35
78671;BME280;68277;52.724;6.516;2023-06-14T02:29:04;101686.31;;;15.25;49.58
78671;BME280;68277;52.724;6.516;2023-06-14T02:31:31;101677.66;;;15.17;50.33
78671;BME280;68277;52.724;6.516;2023-06-14T02:33:59;101658.53;;;15.01;51.40
78671;BME280;68277;52.724;6.516;2023-06-14T02:36:25;101649.91;;;14.91;50.01
78671;BME280;68277;52.724;6.516;2023-06-14T02:38:50;101679.56;;;15.12;50.73
78671;BME280;68277;52.724;6.516;2023-06-14T02:41:16;101669.16;;;15.02;50.70
78671;BME280;68277;52.724;6.516;2023-06-14T02:43:41;101678.94;;;15.02;51.79
78671;BME280;68277;52.724;6.516;2023-06-14T02:46:07;101653.63;;;14.86;50.86
78671;BME280;68277;52.724;6.516;2023-06-14T02:48:34;101653.66;;;14.84;51.49
78671;BME280;68277;52.724;6.516;2023-06-14T02:51:00;101673.88;;;14.93;51.10
78671;BME280;68277;52.724;6.516;2023-06-14T02:53:25;101665.31;;;14.80;52.08
78671;BME280;68277;52.724;6.516;2023-06-14T02:55:51;101683.78;;;14.86;51.90
78671;BME280;68277;52.724;6.516;2023-06-14T02:58:17;101668.09;;;14.76;51.53
78671;BME280;68277;52.724;6.516;2023-06-14T03:00:44;101669.81;;;14.78;51.75
78671;BME280;68277;52.724;6.516;2023-06-14T03:03:09;101685.75;;;14.81;52.22
78671;BME280;68277;52.724;6.516;2023-06-14T03:05:47;101650.69;;;14.63;51.77
78671;BME280;68277;52.724;6.516;2023-06-14T03:08:18;101709.53;;;14.87;53.26
78671;BME280;68277;52.724;6.516;2023-06-14T03:10:49;101666.63;;;14.64;52.36
78671;BME280;68277;52.724;6.516;2023-06-14T03:13:15;101703.50;;;14.81;51.97
78671;BME280;68277;52.724;6.516;2023-06-14T03:15:42;101669.50;;;14.57;52.31
78671;BME280;68277;52.724;6.516;2023-06-14T03:18:09;101688.72;;;14.69;52.05
78671;BME280;68277;52.724;6.516;2023-06-14T03:20:35;101658.19;;;14.47;53.31
78671;BME280;68277;52.724;6.516;2023-06-14T03:23:02;101658.25;;;14.44;52.87
78671;BME280;68277;52.724;6.516;2023-06-14T03:25:28;101705.56;;;14.70;53.32
78671;BME280;68277;52.724;6.516;2023-06-14T03:27:58;101684.66;;;14.53;53.53
78671;BME280;68277;52.724;6.516;2023-06-14T03:30:25;101681.28;;;14.48;54.57
78671;BME280;68277;52.724;6.516;2023-06-14T03:32:55;101712.81;;;14.65;53.31
78671;BME280;68277;52.724;6.516;2023-06-14T03:35:22;101718.03;;;14.69;53.29
78671;BME280;68277;52.724;6.516;2023-06-14T03:37:48;101705.78;;;14.61;53.58
78671;BME280;68277;52.724;6.516;2023-06-14T03:40:15;101711.88;;;14.66;53.54
78671;BME280;68277;52.724;6.516;2023-06-14T03:42:43;101728.69;;;14.69;53.47
78671;BME280;68277;52.724;6.516;2023-06-14T03:45:10;101690.03;;;14.52;53.35
78671;BME280;68277;52.724;6.516;2023-06-14T03:47:36;101717.06;;;14.72;53.20
78671;BME280;68277;52.724;6.516;2023-06-14T03:50:03;101729.41;;;14.76;55.19
78671;BME280;68277;52.724;6.516;2023-06-14T03:52:29;101729.47;;;14.73;54.01
78671;BME280;68277;52.724;6.516;2023-06-14T03:54:54;101730.22;;;14.78;54.76
78671;BME280;68277;52.724;6.516;2023-06-14T03:57:21;101735.38;;;14.85;53.64
78671;BME280;68277;52.724;6.516;2023-06-14T03:59:49;101714.44;;;14.70;53.96
78671;BME280;68277;52.724;6.516;2023-06-14T04:02:15;101717.84;;;14.75;53.76
78671;BME280;68277;52.724;6.516;2023-06-14T04:04:42;101727.44;;;14.82;54.37
78671;BME280;68277;52.724;6.516;2023-06-14T04:07:12;101730.81;;;14.90;53.72
78671;BME280;68277;52.724;6.516;2023-06-14T04:09:38;101724.16;;;15.05;54.76
78671;BME280;68277;52.724;6.516;2023-06-14T04:12:05;101746.50;;;15.96;53.66
78671;BME280;68277;52.724;6.516;2023-06-14T04:14:31;101730.56;;;16.22;52.09
78671;BME280;68277;52.724;6.516;2023-06-14T04:16:58;101749.66;;;16.09;52.90
78671;BME280;68277;52.724;6.516;2023-06-14T04:19:24;101743.22;;;15.87;53.49
78671;BME280;68277;52.724;6.516;2023-06-14T04:21:49;101755.91;;;15.79;54.52
78671;BME280;68277;52.724;6.516;2023-06-14T04:24:16;101738.72;;;15.58;53.98
78671;BME280;68277;52.724;6.516;2023-06-14T04:26:45;101754.75;;;15.58;54.28
78671;BME280;68277;52.724;6.516;2023-06-14T04:29:14;101737.53;;;15.36;54.43
78671;BME280;68277;52.724;6.516;2023-06-14T04:31:42;101735.81;;;15.35;54.27
78671;BME280;68277;52.724;6.516;2023-06-14T04:34:10;101760.25;;;15.52;54.65
78671;BME280;68277;52.724;6.516;2023-06-14T04:36:44;101758.84;;;15.69;53.72
78671;BME280;68277;52.724;6.516;2023-06-14T04:39:20;101773.28;;;16.22;53.49
78671;BME280;68277;52.724;6.516;2023-06-14T04:41:49;101783.44;;;17.70;50.20
78671;BME280;68277;52.724;6.516;2023-06-14T04:44:18;101767.53;;;18.35;49.31
78671;BME280;68277;52.724;6.516;2023-06-14T04:46:46;101760.81;;;18.25;49.46
78671;BME280;68277;52.724;6.516;2023-06-14T04:49:19;101773.97;;;18.08;50.77
78671;BME280;68277;52.724;6.516;2023-06-14T04:51:45;101757.19;;;18.03;50.36
78671;BME280;68277;52.724;6.516;2023-06-14T04:54:12;101769.72;;;18.02;51.23
78671;BME280;68277;52.724;6.516;2023-06-14T04:56:41;101785.41;;;17.90;52.42
78671;BME280;68277;52.724;6.516;2023-06-14T04:59:12;101791.25;;;17.76;53.49
78671;BME280;68277;52.724;6.516;2023-06-14T05:01:38;101772.38;;;18.02;53.25
78671;BME280;68277;52.724;6.516;2023-06-14T05:04:04;101792.31;;;18.63;52.28
78671;BME280;68277;52.724;6.516;2023-06-14T05:06:30;101785.94;;;19.29;50.01
78671;BME280;68277;52.724;6.516;2023-06-14T05:08:56;101765.78;;;19.41;49.65
78671;BME280;68277;52.724;6.516;2023-06-14T05:11:22;101799.63;;;19.45;49.09
78671;BME280;68277;52.724;6.516;2023-06-14T05:13:50;101792.94;;;18.91;50.45
78671;BME280;68277;52.724;6.516;2023-06-14T05:16:17;101776.41;;;18.59;50.76
78671;BME280;68277;52.724;6.516;2023-06-14T05:18:45;101794.09;;;18.86;51.29
78671;BME280;68277;52.724;6.516;2023-06-14T05:21:11;101776.03;;;18.89;50.83
78671;BME280;68277;52.724;6.516;2023-06-14T05:23:36;101794.34;;;19.22;50.28
78671;BME280;68277;52.724;6.516;2023-06-14T05:26:02;101779.41;;;19.36;49.59
78671;BME280;68277;52.724;6.516;2023-06-14T05:28:29;101790.34;;;19.52;49.29
78671;BME280;68277;52.724;6.516;2023-06-14T05:30:57;101779.91;;;19.85;48.39
78671;BME280;68277;52.724;6.516;2023-06-14T05:33:23;101810.06;;;20.30;47.54
78671;BME280;68277;52.724;6.516;2023-06-14T05:35:54;101801.88;;;20.13;48.25
78671;BME280;68277;52.724;6.516;2023-06-14T05:38:20;101781.69;;;20.04;48.28
78671;BME280;68277;52.724;6.516;2023-06-14T05:40:45;101805.84;;;20.24;48.32
78671;BME280;68277;52.724;6.516;2023-06-14T05:43:11;101812.22;;;20.22;48.05
78671;BME280;68277;52.724;6.516;2023-06-14T05:45:36;101792.44;;;20.04;48.51
78671;BME280;68277;52.724;6.516;2023-06-14T05:48:02;101783.22;;;20.83;46.52
78671;BME280;68277;52.724;6.516;2023-06-14T05:50:27;101803.91;;;22.66;42.23
78671;BME280;68277;52.724;6.516;2023-06-14T05:52:53;101803.91;;;22.66;42.04
78671;BME280;68277;52.724;6.516;2023-06-14T05:55:19;101791.81;;;21.94;43.26
78671;BME280;68277;52.724;6.516;2023-06-14T05:57:45;101805.56;;;22.05;43.05
78671;BME280;68277;52.724;6.516;2023-06-14T06:00:11;101791.50;;;23.09;40.08
78671;BME280;68277;52.724;6.516;2023-06-14T06:02:43;101823.31;;;22.88;40.25
78671;BME280;68277;52.724;6.516;2023-06-14T06:05:12;101809.38;;;22.01;42.58
78671;BME280;68277;52.724;6.516;2023-06-14T06:07:38;101810.84;;;21.22;44.04
78671;BME280;68277;52.724;6.516;2023-06-14T06:10:06;101829.63;;;20.88;44.74
78671;BME280;68277;52.724;6.516;2023-06-14T06:12:32;101835.91;;;20.70;45.52
78671;BME280;68277;52.724;6.516;2023-06-14T06:14:59;101816.56;;;20.62;45.48
78671;BME280;68277;52.724;6.516;2023-06-14T06:17:25;101836.81;;;21.06;44.70
78671;BME280;68277;52.724;6.516;2023-06-14T06:19:51;101829.03;;;21.00;45.25
78671;BME280;68277;52.724;6.516;2023-06-14T06:22:16;101801.69;;;20.90;45.53
78671;BME280;68277;52.724;6.516;2023-06-14T06:24:42;101824.66;;;21.50;44.25
78671;BME280;68277;52.724;6.516;2023-06-14T06:27:08;101833.50;;;22.04;43.44
78671;BME280;68277;52.724;6.516;2023-06-14T06:29:34;101817.34;;;22.19;42.72
78671;BME280;68277;52.724;6.516;2023-06-14T06:32:00;101829.69;;;22.23;42.98
78671;BME280;68277;52.724;6.516;2023-06-14T06:34:26;101811.09;;;21.69;43.82
78671;BME280;68277;52.724;6.516;2023-06-14T06:36:52;101836.97;;;22.06;43.32
78671;BME280;68277;52.724;6.516;2023-06-14T06:39:17;101810.38;;;23.09;40.36
78671;BME280;68277;52.724;6.516;2023-06-14T06:41:43;101807.84;;;23.06;39.83
78671;BME280;68277;52.724;6.516;2023-06-14T06:44:11;101807.81;;;22.76;41.02
78671;BME280;68277;52.724;6.516;2023-06-14T06:46:38;101836.22;;;22.83;40.78
78671;BME280;68277;52.724;6.516;2023-06-14T06:49:08;101835.97;;;23.77;38.80
78671;BME280;68277;52.724;6.516;2023-06-14T06:51:35;101830.06;;;23.27;39.53
78671;BME280;68277;52.724;6.516;2023-06-14T06:54:01;101820.19;;;22.49;40.45
78671;BME280;68277;52.724;6.516;2023-06-14T06:56:27;101840.53;;;22.06;41.66
78671;BME280;68277;52.724;6.516;2023-06-14T06:58:53;101839.72;;;21.71;42.30
78671;BME280;68277;52.724;6.516;2023-06-14T07:01:18;101843.09;;;21.58;42.43
78671;BME280;68277;52.724;6.516;2023-06-14T07:03:45;101818.94;;;21.39;42.30
78671;BME280;68277;52.724;6.516;2023-06-14T07:06:11;101858.69;;;22.03;41.63
78671;BME280;68277;52.724;6.516;2023-06-14T07:08:37;101868.41;;;22.22;41.05
78671;BME280;68277;52.724;6.516;2023-06-14T07:11:05;101831.91;;;22.32;40.60
78671;BME280;68277;52.724;6.516;2023-06-14T07:13:31;101833.88;;;23.23;38.58
78671;BME280;68277;52.724;6.516;2023-06-14T07:16:00;101868.03;;;23.24;38.70
78671;BME280;68277;52.724;6.516;2023-06-14T07:18:26;101867.66;;;22.84;39.56
78671;BME280;68277;52.724;6.516;2023-06-14T07:20:52;101856.50;;;22.75;39.42
78671;BME280;68277;52.724;6.516;2023-06-14T07:23:20;101852.75;;;22.13;40.21
78671;BME280;68277;52.724;6.516;2023-06-14T07:25:46;101851.44;;;21.88;40.90
78671;BME280;68277;52.724;6.516;2023-06-14T07:28:12;101847.59;;;21.74;41.33
78671;BME280;68277;52.724;6.516;2023-06-14T07:30:37;101832.88;;;21.99;40.93
78671;BME280;68277;52.724;6.516;2023-06-14T07:33:03;101854.22;;;22.19;40.94
78671;BME280;68277;52.724;6.516;2023-06-14T07:35:28;101830.63;;;22.07;41.36
78671;BME280;68277;52.724;6.516;2023-06-14T07:37:54;101861.38;;;22.20;41.94
78671;BME280;68277;52.724;6.516;2023-06-14T07:40:19;101858.53;;;22.38;42.24
78671;BME280;68277;52.724;6.516;2023-06-14T07:42:45;101842.25;;;22.40;41.58
78671;BME280;68277;52.724;6.516;2023-06-14T07:45:13;101871.97;;;22.56;40.39
78671;BME280;68277;52.724;6.516;2023-06-14T07:47:39;101876.09;;;22.94;39.48
78671;BME280;68277;52.724;6.516;2023-06-14T07:50:07;101872.25;;;23.59;38.83
78671;BME280;68277;52.724;6.516;2023-06-14T07:52:35;101865.94;;;23.74;38.90
78671;BME280;68277;52.724;6.516;2023-06-14T07:55:00;101866.38;;;24.53;37.46
78671;BME280;68277;52.724;6.516;2023-06-14T07:57:26;101842.94;;;25.33;35.36
78671;BME280;68277;52.724;6.516;2023-06-14T07:59:51;101856.97;;;24.72;36.01
78671;BME280;68277;52.724;6.516;2023-06-14T08:02:17;101864.25;;;24.43;36.45
78671;BME280;68277;52.724;6.516;2023-06-14T08:04:43;101860.13;;;24.93;35.70
78671;BME280;68277;52.724;6.516;2023-06-14T08:07:08;101885.63;;;25.30;35.67
78671;BME280;68277;52.724;6.516;2023-06-14T08:09:35;101847.69;;;24.62;35.86
78671;BME280;68277;52.724;6.516;2023-06-14T08:12:03;101886.00;;;24.84;36.05
78671;BME280;68277;52.724;6.516;2023-06-14T08:14:29;101870.81;;;25.35;34.22
78671;BME280;68277;52.724;6.516;2023-06-14T08:16:54;101852.94;;;25.85;33.91
78671;BME280;68277;52.724;6.516;2023-06-14T08:19:23;101860.78;;;25.23;34.69
78671;BME280;68277;52.724;6.516;2023-06-14T08:21:49;101861.97;;;25.19;34.89
78671;BME280;68277;52.724;6.516;2023-06-14T08:24:15;101868.09;;;25.35;35.15
78671;BME280;68277;52.724;6.516;2023-06-14T08:26:41;101856.34;;;24.95;35.75
78671;BME280;68277;52.724;6.516;2023-06-14T08:29:06;101879.13;;;24.79;37.14
78671;BME280;68277;52.724;6.516;2023-06-14T08:31:32;101864.06;;;24.46;37.01
78671;BME280;68277;52.724;6.516;2023-06-14T08:33:58;101887.84;;;24.41;34.72
78671;BME280;68277;52.724;6.516;2023-06-14T08:36:23;101882.78;;;24.49;36.77
78671;BME280;68277;52.724;6.516;2023-06-14T08:38:49;101872.56;;;24.26;35.83
78671;BME280;68277;52.724;6.516;2023-06-14T08:41:20;101891.72;;;24.23;36.69
78671;BME280;68277;52.724;6.516;2023-06-14T08:43:47;101883.69;;;24.22;35.59
78671;BME280;68277;52.724;6.516;2023-06-14T08:46:14;101869.50;;;24.18;35.57
78671;BME280;68277;52.724;6.516;2023-06-14T08:48:46;101842.50;;;24.45;33.79
78671;BME280;68277;52.724;6.516;2023-06-14T08:51:13;101865.19;;;24.85;33.69
78671;BME280;68277;52.724;6.516;2023-06-14T08:53:39;101845.84;;;24.91;33.79
78671;BME280;68277;52.724;6.516;2023-06-14T08:56:08;101874.84;;;25.15;32.45
78671;BME280;68277;52.724;6.516;2023-06-14T08:58:44;101879.81;;;25.09;33.93
78671;BME280;68277;52.724;6.516;2023-06-14T09:01:11;101874.97;;;25.14;34.52
78671;BME280;68277;52.724;6.516;2023-06-14T09:03:42;101872.50;;;25.24;34.29
78671;BME280;68277;52.724;6.516;2023-06-14T09:06:08;101857.88;;;25.26;34.36
78671;BME280;68277;52.724;6.516;2023-06-14T09:08:42;101866.38;;;25.73;32.68
78671;BME280;68277;52.724;6.516;2023-06-14T09:11:11;101871.50;;;25.78;33.17
78671;BME280;68277;52.724;6.516;2023-06-14T09:13:41;101864.78;;;25.84;32.53
78671;BME280;68277;52.724;6.516;2023-06-14T09:16:07;101863.03;;;26.08;32.34
78671;BME280;68277;52.724;6.516;2023-06-14T09:18:37;101871.19;;;25.95;31.29
78671;BME280;68277;52.724;6.516;2023-06-14T09:21:05;101855.56;;;25.86;32.21
78671;BME280;68277;52.724;6.516;2023-06-14T09:23:52;101873.44;;;25.76;31.37
78671;BME280;68277;52.724;6.516;2023-06-14T09:26:19;101868.75;;;25.65;32.42
78671;BME280;68277;52.724;6.516;2023-06-14T09:28:46;101877.88;;;25.77;31.79
78671;BME280;68277;52.724;6.516;2023-06-14T09:31:13;101875.94;;;25.79;32.65
78671;BME280;68277;52.724;6.516;2023-06-14T09:33:42;101843.56;;;25.51;32.32
78671;BME280;68277;52.724;6.516;2023-06-14T09:36:15;101853.63;;;25.49;32.54
78671;BME280;68277;52.724;6.516;2023-06-14T09:38:42;101857.13;;;25.63;32.88
78671;BME280;68277;52.724;6.516;2023-06-14T09:41:07;101826.34;;;25.64;33.61
78671;BME280;68277;52.724;6.516;2023-06-14T09:43:33;101865.31;;;25.89;33.11
78671;BME280;68277;52.724;6.516;2023-06-14T09:46:00;101841.44;;;25.94;33.64
78671;BME280;68277;52.724;6.516;2023-06-14T09:48:26;101866.41;;;26.36;32.91
78671;BME280;68277;52.724;6.516;2023-06-14T09:50:55;101865.44;;;26.37;31.55
78671;BME280;68277;52.724;6.516;2023-06-14T09:53:21;101871.84;;;26.36;31.05
78671;BME280;68277;52.724;6.516;2023-06-14T09:55:49;101850.03;;;26.25;31.00
78671;BME280;68277;52.724;6.516;2023-06-14T09:58:16;101862.47;;;26.53;28.66
78671;BME280;68277;52.724;6.516;2023-06-14T10:00:45;101842.66;;;26.40;30.33
78671;BME280;68277;52.724;6.516;2023-06-14T10:03:16;101862.81;;;26.61;30.22
78671;BME280;68277;52.724;6.516;2023-06-14T10:05:47;101867.78;;;26.67;29.96
78671;BME280;68277;52.724;6.516;2023-06-14T10:08:15;101843.69;;;26.50;30.08
78671;BME280;68277;52.724;6.516;2023-06-14T10:10:43;101856.84;;;26.43;29.73
78671;BME280;68277;52.724;6.516;2023-06-14T10:13:09;101855.91;;;26.32;30.21
78671;BME280;68277;52.724;6.516;2023-06-14T10:18:28;101867.72;;;26.43;28.21
78671;BME280;68277;52.724;6.516;2023-06-14T10:23:45;101863.91;;;26.33;29.10
78671;BME280;68277;52.724;6.516;2023-06-14T10:26:23;101863.69;;;26.36;29.01
78671;BME280;68277;52.724;6.516;2023-06-14T10:31:40;101835.06;;;26.07;29.04
78671;BME280;68277;52.724;6.516;2023-06-14T10:34:06;101848.84;;;26.17;28.42
78671;BME280;68277;52.724;6.516;2023-06-14T10:36:32;101858.94;;;26.27;27.71
78671;BME280;68277;52.724;6.516;2023-06-14T10:39:14;101867.41;;;26.23;28.63
78671;BME280;68277;52.724;6.516;2023-06-14T10:41:41;101848.50;;;26.09;28.17
78671;BME280;68277;52.724;6.516;2023-06-14T10:46:55;101857.19;;;26.26;28.64
78671;BME280;68277;52.724;6.516;2023-06-14T10:49:37;101838.72;;;26.31;28.22
78671;BME280;68277;52.724;6.516;2023-06-14T10:52:14;101874.09;;;26.55;27.30
78671;BME280;68277;52.724;6.516;2023-06-14T11:00:09;101852.16;;;26.58;28.26
78671;BME280;68277;52.724;6.516;2023-06-14T11:05:26;101862.16;;;26.45;28.30
78671;BME280;68277;52.724;6.516;2023-06-14T11:10:49;101831.66;;;26.54;28.19
78671;BME280;68277;52.724;6.516;2023-06-14T11:13:18;101848.44;;;26.59;28.42
78671;BME280;68277;52.724;6.516;2023-06-14T11:15:45;101840.34;;;26.46;27.92
78671;BME280;68277;52.724;6.516;2023-06-14T11:18:13;101856.09;;;26.54;27.85
78671;BME280;68277;52.724;6.516;2023-06-14T11:20:40;101839.94;;;26.40;28.06
78671;BME280;68277;52.724;6.516;2023-06-14T11:23:06;101821.03;;;26.38;27.87
78671;BME280;68277;52.724;6.516;2023-06-14T11:25:31;101833.72;;;26.38;27.43
78671;BME280;68277;52.724;6.516;2023-06-14T11:27:57;101811.78;;;26.41;27.57
78671;BME280;68277;52.724;6.516;2023-06-14T11:30:23;101803.66;;;26.41;27.32
78671;BME280;68277;52.724;6.516;2023-06-14T11:32:51;101810.00;;;26.65;27.54
78671;BME280;68277;52.724;6.516;2023-06-14T11:35:18;101829.19;;;26.87;26.87
78671;BME280;68277;52.724;6.516;2023-06-14T11:37:44;101831.59;;;26.79;26.70
78671;BME280;68277;52.724;6.516;2023-06-14T11:40:11;101810.16;;;26.51;27.19
78671;BME280;68277;52.724;6.516;2023-06-14T11:42:40;101826.91;;;26.69;27.21
78671;BME280;68277;52.724;6.516;2023-06-14T11:45:11;101830.84;;;26.65;27.30
78671;BME280;68277;52.724;6.516;2023-06-14T11:47:40;101810.16;;;26.51;27.34
78671;BME280;68277;52.724;6.516;2023-06-14T11:50:08;101844.31;;;26.79;27.15
78671;BME280;68277;52.724;6.516;2023-06-14T11:52:36;101841.81;;;26.99;27.09
78671;BME280;68277;52.724;6.516;2023-06-14T11:55:03;101808.44;;;26.86;27.60
78671;BME280;68277;52.724;6.516;2023-06-14T11:57:35;101812.03;;;26.74;27.76
78671;BME280;68277;52.724;6.516;2023-06-14T12:00:06;101815.69;;;26.86;27.34
78671;BME280;68277;52.724;6.516;2023-06-14T12:02:38;101833.09;;;26.83;27.55
78671;BME280;68277;52.724;6.516;2023-06-14T12:05:05;101833.56;;;26.77;27.98
78671;BME280;68277;52.724;6.516;2023-06-14T12:07:36;101834.19;;;26.81;27.58
78671;BME280;68277;52.724;6.516;2023-06-14T12:12:28;101824.59;;;26.88;27.87
78671;BME280;68277;52.724;6.516;2023-06-14T12:14:56;101810.16;;;26.87;28.42
78671;BME280;68277;52.724;6.516;2023-06-14T12:17:22;101805.94;;;26.83;28.02
78671;BME280;68277;52.724;6.516;2023-06-14T12:19:49;101809.47;;;26.96;28.08
78671;BME280;68277;52.724;6.516;2023-06-14T12:22:16;101823.28;;;27.17;28.33
78671;BME280;68277;52.724;6.516;2023-06-14T12:24:45;101837.44;;;27.09;28.19
78671;BME280;68277;52.724;6.516;2023-06-14T12:27:11;101820.25;;;27.09;28.58
78671;BME280;68277;52.724;6.516;2023-06-14T12:29:43;101806.16;;;27.04;28.32
78671;BME280;68277;52.724;6.516;2023-06-14T12:32:09;101798.28;;;27.12;27.97
78671;BME280;68277;52.724;6.516;2023-06-14T12:34:35;101791.97;;;27.11;28.39
78671;BME280;68277;52.724;6.516;2023-06-14T12:37:01;101816.31;;;27.60;28.01
78671;BME280;68277;52.724;6.516;2023-06-14T12:39:26;101800.81;;;27.61;27.94
78671;BME280;68277;52.724;6.516;2023-06-14T12:41:53;101821.16;;;27.79;27.98
78671;BME280;68277;52.724;6.516;2023-06-14T12:44:23;101796.13;;;27.52;27.99
78671;BME280;68277;52.724;6.516;2023-06-14T12:46:49;101805.66;;;27.57;27.83
78671;BME280;68277;52.724;6.516;2023-06-14T12:49:16;101823.59;;;27.71;27.96
78671;BME280;68277;52.724;6.516;2023-06-14T12:51:45;101797.53;;;27.79;27.08
78671;BME280;68277;52.724;6.516;2023-06-14T12:54:10;101814.06;;;28.00;27.02
78671;BME280;68277;52.724;6.516;2023-06-14T12:56:37;101820.22;;;28.02;27.09
78671;BME280;68277;52.724;6.516;2023-06-14T12:59:02;101805.63;;;28.03;27.18
78671;BME280;68277;52.724;6.516;2023-06-14T13:01:28;101805.09;;;27.87;27.13
78671;BME280;68277;52.724;6.516;2023-06-14T13:03:53;101810.53;;;27.87;28.01
78671;BME280;68277;52.724;6.516;2023-06-14T13:06:22;101794.94;;;27.89;27.81
78671;BME280;68277;52.724;6.516;2023-06-14T13:08:48;101809.91;;;27.95;27.42
78671;BME280;68277;52.724;6.516;2023-06-14T13:11:14;101815.97;;;27.98;27.26
78671;BME280;68277;52.724;6.516;2023-06-14T13:13:39;101822.03;;;27.91;27.30
78671;BME280;68277;52.724;6.516;2023-06-14T13:16:05;101822.78;;;27.82;27.56
78671;BME280;68277;52.724;6.516;2023-06-14T13:18:31;101832.78;;;27.92;28.42
78671;BME280;68277;52.724;6.516;2023-06-14T13:20:56;101829.38;;;28.12;27.73